Time;durP1;ratioP1;P1;durP2;ratioP2;P2;SDS_P1;SDS_P2;PMS_P1;PMS_P2;Temp;Humidity;BMP_temperature;BMP_pressure;BME280_temperature;BME280_humidity;BME280_pressure;Samples;Min_cycle;Max_cycle;Signal;HPM_P1;HPM_P2
2023/02/10 00:00:25;;;;;;;33.20;17.83;;;1.00;99.90;;;;;;5012281;28;20481;-64
2023/02/10 00:02:51;;;;;;;40.05;18.45;;;1.00;99.90;;;;;;4993354;28;20185;-65
2023/02/10 00:05:17;;;;;;;35.60;18.23;;;1.00;99.90;;;;;;5010713;28;20038;-64
2023/02/10 00:07:43;;;;;;;36.63;19.20;;;1.10;99.90;;;;;;4994679;28;20418;-65
2023/02/10 00:10:08;;;;;;;47.78;19.80;;;1.00;99.90;;;;;;4993892;28;20447;-65
2023/02/10 00:12:37;;;;;;;40.33;19.02;;;1.10;99.90;;;;;;5011414;28;20050;-64
2023/02/10 00:15:04;;;;;;;35.53;18.35;;;1.00;99.90;;;;;;5011492;28;20069;-64
2023/02/10 00:17:30;;;;;;;37.25;17.83;;;1.00;99.90;;;;;;5011986;28;20042;-65
2023/02/10 00:19:56;;;;;;;35.65;18.02;;;1.00;99.90;;;;;;4992149;28;20173;-65
2023/02/10 00:22:21;;;;;;;37.08;18.27;;;0.90;99.90;;;;;;4994482;28;20070;-65
2023/02/10 00:24:47;;;;;;;36.45;17.25;;;1.00;99.90;;;;;;5011435;28;20061;-65
2023/02/10 00:27:13;;;;;;;34.35;16.83;;;1.00;99.90;;;;;;5011173;28;20041;-64
2023/02/10 00:29:38;;;;;;;34.90;17.20;;;1.00;99.90;;;;;;5011849;28;20116;-65
2023/02/10 00:32:04;;;;;;;44.60;17.65;;;1.00;99.90;;;;;;5010977;28;20049;-65
2023/02/10 00:34:30;;;;;;;34.65;17.83;;;1.00;99.90;;;;;;4993542;28;20056;-64
2023/02/10 00:36:56;;;;;;;32.40;18.08;;;1.00;99.90;;;;;;4990130;28;20037;-64
2023/02/10 00:39:21;;;;;;;41.00;18.85;;;1.10;99.90;;;;;;5008686;28;20132;-65
2023/02/10 00:41:47;;;;;;;35.00;18.02;;;1.10;99.90;;;;;;4992358;28;20088;-64
2023/02/10 00:44:13;;;;;;;36.85;18.55;;;1.10;99.90;;;;;;5012056;28;20088;-65
2023/02/10 00:46:38;;;;;;;35.58;18.35;;;1.10;99.90;;;;;;5011060;28;20060;-64
2023/02/10 00:49:04;;;;;;;37.50;18.58;;;1.10;99.90;;;;;;5007544;28;20050;-65
2023/02/10 00:51:30;;;;;;;40.40;18.15;;;1.10;99.90;;;;;;4991042;28;20041;-64
2023/02/10 00:53:56;;;;;;;39.65;18.33;;;1.10;99.90;;;;;;4989664;28;20060;-64
2023/02/10 00:56:22;;;;;;;39.38;18.20;;;1.10;99.90;;;;;;5010796;28;20042;-64
2023/02/10 00:58:48;;;;;;;37.25;16.67;;;1.10;99.90;;;;;;5007373;28;20525;-65
2023/02/10 01:01:14;;;;;;;38.15;17.58;;;1.10;99.90;;;;;;5010629;28;20030;-66
2023/02/10 01:03:40;;;;;;;35.72;17.38;;;1.10;99.90;;;;;;5005653;28;20150;-67
2023/02/10 01:06:06;;;;;;;30.85;17.15;;;1.20;99.90;;;;;;4992642;28;20130;-67
2023/02/10 01:08:33;;;;;;;30.48;16.77;;;1.10;99.90;;;;;;5011586;28;20046;-67
2023/02/10 01:11:10;;;;;;;37.92;17.63;;;1.00;99.90;;;;;;5011622;28;20038;-67
2023/02/10 01:13:37;;;;;;;31.42;15.05;;;1.10;99.90;;;;;;4976626;28;20433;-67
2023/02/10 01:16:10;;;;;;;39.42;16.83;;;1.10;99.90;;;;;;5009076;28;20048;-66
2023/02/10 01:18:36;;;;;;;36.10;16.30;;;1.10;99.90;;;;;;4987056;28;20046;-67
2023/02/10 01:21:07;;;;;;;34.45;15.57;;;1.20;99.90;;;;;;4991016;28;20037;-66
2023/02/10 01:23:33;;;;;;;33.80;15.30;;;1.20;99.90;;;;;;5009591;28;20085;-67
2023/02/10 01:26:01;;;;;;;37.70;16.35;;;1.20;99.90;;;;;;4969947;28;20041;-67
2023/02/10 01:28:27;;;;;;;36.15;15.93;;;1.20;99.90;;;;;;5009883;28;20545;-66
2023/02/10 01:30:53;;;;;;;31.55;15.45;;;1.20;99.90;;;;;;5009181;28;20121;-66
2023/02/10 01:33:19;;;;;;;36.95;16.00;;;1.20;99.90;;;;;;4990359;28;20482;-67
2023/02/10 01:35:44;;;;;;;36.92;14.85;;;1.20;99.90;;;;;;5009073;28;20409;-67
2023/02/10 01:38:10;;;;;;;37.22;15.50;;;1.20;99.90;;;;;;5009629;28;20458;-67
2023/02/10 01:40:36;;;;;;;35.38;15.02;;;1.20;99.90;;;;;;4991780;28;20128;-66
2023/02/10 01:43:02;;;;;;;41.33;16.98;;;1.20;99.90;;;;;;4993004;28;20114;-67
2023/02/10 01:45:37;;;;;;;35.10;16.02;;;1.20;99.90;;;;;;5011380;28;20034;-67
2023/02/10 01:48:03;;;;;;;;;;;1.20;99.90;;;;;;5009472;28;20100;-66
2023/02/10 01:50:34;;;;;;;29.95;14.82;;;1.20;99.90;;;;;;5010424;28;19917;-67
2023/02/10 01:53:00;;;;;;;38.95;15.75;;;1.20;99.90;;;;;;5009539;28;20073;-67
2023/02/10 01:55:33;;;;;;;29.25;15.00;;;1.20;99.90;;;;;;5010672;28;20069;-66
2023/02/10 01:58:02;;;;;;;35.78;14.73;;;1.20;99.90;;;;;;5009283;28;20060;-66
2023/02/10 02:00:27;;;;;;;32.25;14.77;;;1.20;99.90;;;;;;5010707;28;20066;-67
2023/02/10 02:02:53;;;;;;;33.92;14.43;;;1.20;99.90;;;;;;5007185;28;20033;-67
2023/02/10 02:05:29;;;;;;;43.28;16.67;;;1.20;99.90;;;;;;5009669;28;20496;-67
2023/02/10 02:07:55;;;;;;;32.85;14.15;;;1.30;99.90;;;;;;5008926;28;20088;-67
2023/02/10 02:10:27;;;;;;;34.30;14.15;;;1.20;99.90;;;;;;5009875;28;20084;-67
2023/02/10 02:12:58;;;;;;;32.70;13.80;;;1.20;99.90;;;;;;4976556;28;20041;-67
2023/02/10 02:15:47;;;;;;;39.95;14.20;;;1.20;99.90;;;;;;5009707;28;20124;-67
2023/02/10 02:18:32;;;;;;;35.10;14.40;;;1.20;99.90;;;;;;4986149;28;20455;-67
2023/02/10 02:21:15;;;;;;;32.45;13.77;;;1.20;99.90;;;;;;5008953;28;20033;-66
2023/02/10 02:23:44;;;;;;;35.35;14.68;;;1.30;99.90;;;;;;5003236;28;20049;-67
2023/02/10 02:26:41;;;;;;;37.60;14.52;;;1.30;99.90;;;;;;5008111;28;20096;-66
2023/02/10 02:29:55;;;;;;;30.42;14.40;;;1.30;99.90;;;;;;5009303;28;20486;-67
2023/02/10 02:32:25;;;;;;;35.55;15.40;;;1.30;99.90;;;;;;4993921;28;20050;-67
2023/02/10 02:35:02;;;;;;;36.63;14.55;;;1.30;99.90;;;;;;4989934;28;20049;-67
2023/02/10 02:37:40;;;;;;;33.25;15.05;;;1.30;99.90;;;;;;5010148;28;20073;-67
2023/02/10 02:40:07;;;;;;;32.22;15.27;;;1.30;99.90;;;;;;4991149;28;20046;-66
2023/02/10 02:42:33;;;;;;;36.97;15.10;;;1.20;99.90;;;;;;4990687;28;20100;-67
2023/02/10 02:44:59;;;;;;;27.25;13.95;;;1.20;99.90;;;;;;5009294;28;20387;-67
2023/02/10 02:47:54;;;;;;;31.58;15.00;;;1.20;99.90;;;;;;4971024;28;20050;-67
2023/02/10 02:50:35;;;;;;;28.15;13.98;;;1.20;99.90;;;;;;5009336;28;20046;-67
2023/02/10 02:53:10;;;;;;;31.70;16.05;;;1.20;99.90;;;;;;5009012;28;20085;-67
2023/02/10 02:55:50;;;;;;;33.45;15.73;;;1.20;99.90;;;;;;5006545;28;20077;-67
2023/02/10 02:58:40;;;;;;;40.75;16.38;;;1.20;99.90;;;;;;5008825;28;20041;-67
2023/02/10 03:01:12;;;;;;;33.63;15.18;;;1.20;99.90;;;;;;4990932;28;20038;-67
2023/02/10 03:03:38;;;;;;;31.67;15.35;;;1.20;99.90;;;;;;5008675;28;20092;-66
2023/02/10 03:06:04;;;;;;;33.80;15.70;;;1.10;99.90;;;;;;4989315;28;20041;-66
2023/02/10 03:08:32;;;;;;;30.52;15.65;;;1.10;99.90;;;;;;5008424;28;20044;-66
2023/02/10 03:10:58;;;;;;;37.58;17.40;;;1.10;99.90;;;;;;5009464;28;20044;-66
2023/02/10 03:13:24;;;;;;;38.85;16.80;;;1.10;99.90;;;;;;5009461;28;20034;-66
2023/02/10 03:15:50;;;;;;;36.33;17.67;;;1.10;99.90;;;;;;5008590;28;20078;-65
2023/02/10 03:18:16;;;;;;;37.35;17.35;;;1.10;99.90;;;;;;5007456;28;20042;-66
2023/02/10 03:20:43;;;;;;;34.08;15.90;;;1.10;99.90;;;;;;5009139;28;20103;-66
2023/02/10 03:23:11;;;;;;;38.33;16.15;;;1.10;99.90;;;;;;5007833;28;20040;-66
2023/02/10 03:25:37;;;;;;;38.22;16.83;;;1.10;99.90;;;;;;4974999;28;20073;-66
2023/02/10 03:28:05;;;;;;;37.20;16.98;;;1.10;99.90;;;;;;5009459;28;20077;-66
2023/02/10 03:30:31;;;;;;;31.80;15.52;;;1.00;99.90;;;;;;5008723;28;20390;-66
2023/02/10 03:32:57;;;;;;;33.17;16.05;;;1.00;99.90;;;;;;4991801;28;20462;-65
2023/02/10 03:35:23;;;;;;;35.70;15.52;;;1.00;99.90;;;;;;5008805;28;20113;-65
2023/02/10 03:37:49;;;;;;;33.17;14.80;;;1.00;99.90;;;;;;4990418;28;20068;-66
2023/02/10 03:40:15;;;;;;;31.10;14.82;;;1.00;99.90;;;;;;5007659;28;20486;-66
2023/02/10 03:42:40;;;;;;;36.88;15.65;;;1.00;99.90;;;;;;5008499;28;20088;-66
2023/02/10 03:45:06;;;;;;;32.55;15.55;;;1.00;99.90;;;;;;4980305;28;20092;-66
2023/02/10 03:47:32;;;;;;;30.25;15.65;;;1.00;99.90;;;;;;5008535;28;20060;-66
2023/02/10 03:49:58;;;;;;;35.97;15.48;;;1.00;99.90;;;;;;5007906;28;20034;-66
2023/02/10 03:52:24;;;;;;;30.02;15.00;;;1.00;99.90;;;;;;5007445;28;20081;-66
2023/02/10 03:54:49;;;;;;;36.42;15.68;;;1.00;99.90;;;;;;5008766;28;20063;-66
2023/02/10 03:57:15;;;;;;;37.00;14.48;;;1.10;99.90;;;;;;5009547;28;20044;-66
2023/02/10 03:59:41;;;;;;;33.33;15.23;;;1.00;99.90;;;;;;4990229;28;20621;-66
2023/02/10 04:02:06;;;;;;;32.50;16.45;;;1.00;99.90;;;;;;4990395;28;20034;-66
2023/02/10 04:04:32;;;;;;;33.67;15.68;;;1.00;99.90;;;;;;4993944;28;20500;-66
2023/02/10 04:06:58;;;;;;;36.03;14.60;;;1.00;99.90;;;;;;4990220;28;20460;-66
2023/02/10 04:09:24;;;;;;;33.78;15.93;;;1.00;99.90;;;;;;4993091;28;20057;-66
2023/02/10 04:11:49;;;;;;;32.10;15.68;;;1.00;99.90;;;;;;4994384;28;20135;-66
2023/02/10 04:14:15;;;;;;;30.10;14.60;;;1.00;99.90;;;;;;5012032;28;20050;-66
2023/02/10 04:16:41;;;;;;;31.52;15.13;;;1.00;99.90;;;;;;5007238;28;20042;-66
2023/02/10 04:19:07;;;;;;;28.50;14.52;;;1.10;99.90;;;;;;5010835;28;20055;-66
2023/02/10 04:21:32;;;;;;;41.72;15.05;;;1.00;99.90;;;;;;4994188;28;20481;-66
2023/02/10 04:23:58;;;;;;;35.53;15.18;;;1.00;99.90;;;;;;5010736;28;20112;-66
2023/02/10 04:26:24;;;;;;;28.73;14.50;;;1.00;99.90;;;;;;5008107;28;20063;-66
2023/02/10 04:28:50;;;;;;;31.80;15.30;;;1.00;99.90;;;;;;5009365;28;20445;-66
2023/02/10 04:31:16;;;;;;;31.80;15.07;;;1.00;99.90;;;;;;4992180;28;20049;-66
2023/02/10 04:33:41;;;;;;;29.30;14.60;;;1.00;99.90;;;;;;5010500;28;20070;-66
2023/02/10 04:36:08;;;;;;;29.95;14.88;;;1.10;99.90;;;;;;5011811;28;20044;-66
2023/02/10 04:38:33;;;;;;;24.90;14.23;;;1.10;99.90;;;;;;5011431;28;20457;-66
2023/02/10 04:40:59;;;;;;;32.30;14.82;;;1.00;99.90;;;;;;5004962;28;20038;-64
2023/02/10 04:43:25;;;;;;;33.55;15.07;;;1.10;99.90;;;;;;5009171;28;20117;-64
2023/02/10 04:45:51;;;;;;;30.13;14.07;;;1.10;99.90;;;;;;5010747;28;20117;-64
2023/02/10 04:48:17;;;;;;;30.48;14.30;;;1.00;99.90;;;;;;5010914;28;20446;-64
2023/02/10 04:50:42;;;;;;;27.70;13.75;;;1.00;99.90;;;;;;5011176;28;20053;-64
2023/02/10 04:53:09;;;;;;;24.92;12.75;;;1.10;99.90;;;;;;5011664;28;20520;-64
2023/02/10 04:55:34;;;;;;;28.52;13.73;;;1.10;99.90;;;;;;5011891;28;20037;-64
2023/02/10 04:58:01;;;;;;;26.15;13.30;;;1.10;99.90;;;;;;5011581;28;20379;-64
2023/02/10 05:00:27;;;;;;;23.15;13.20;;;1.10;99.90;;;;;;4993279;28;20121;-63
2023/02/10 05:02:53;;;;;;;25.63;12.88;;;1.10;99.90;;;;;;5011149;28;20401;-63
2023/02/10 05:05:20;;;;;;;31.30;13.00;;;1.20;99.90;;;;;;5010564;28;20049;-64
2023/02/10 05:07:45;;;;;;;27.55;14.40;;;1.20;99.90;;;;;;5011497;28;20383;-63
2023/02/10 05:10:11;;;;;;;29.55;13.35;;;1.20;99.90;;;;;;5010324;28;20080;-63
2023/02/10 05:12:37;;;;;;;26.40;13.05;;;1.20;99.90;;;;;;4977295;28;20037;-64
2023/02/10 05:15:03;;;;;;;24.88;12.25;;;1.20;99.90;;;;;;4991174;28;20054;-64
2023/02/10 05:17:29;;;;;;;29.35;12.73;;;1.20;99.90;;;;;;5011544;28;20486;-64
2023/02/10 05:19:55;;;;;;;30.52;14.18;;;1.20;99.90;;;;;;5010397;28;20060;-64
2023/02/10 05:22:24;;;;;;;25.83;13.15;;;1.20;99.90;;;;;;5011221;28;20450;-64
2023/02/10 05:24:51;;;;;;;25.83;12.23;;;1.30;99.90;;;;;;5010348;28;20038;-63
2023/02/10 05:27:17;;;;;;;29.73;13.43;;;1.30;99.90;;;;;;4983857;28;20030;-64
2023/02/10 05:29:43;;;;;;;27.02;12.45;;;1.30;99.90;;;;;;4992707;28;20057;-63
2023/02/10 05:32:09;;;;;;;23.73;11.85;;;1.20;99.90;;;;;;5010815;28;20037;-66
2023/02/10 05:34:34;;;;;;;26.52;12.05;;;1.30;99.90;;;;;;5009509;28;20046;-66
2023/02/10 05:37:00;;;;;;;32.05;13.68;;;1.30;99.90;;;;;;5010379;28;20468;-66
2023/02/10 05:39:26;;;;;;;27.60;12.55;;;1.20;99.90;;;;;;4992140;28;20048;-66
2023/02/10 05:41:56;;;;;;;28.30;13.18;;;1.20;99.90;;;;;;5008806;28;20979;-66
2023/02/10 05:44:23;;;;;;;25.05;12.60;;;1.20;99.90;;;;;;4991159;28;20394;-65
2023/02/10 05:46:49;;;;;;;23.20;12.82;;;1.20;99.90;;;;;;5010144;28;20413;-66
2023/02/10 05:49:15;;;;;;;28.48;12.68;;;1.20;99.90;;;;;;4991991;28;20045;-66
2023/02/10 05:51:41;;;;;;;27.33;13.20;;;1.20;99.90;;;;;;5010500;28;20077;-66
2023/02/10 05:54:07;;;;;;;31.77;13.25;;;1.10;99.90;;;;;;5008635;28;20038;-66
2023/02/10 05:56:33;;;;;;;29.95;13.15;;;1.10;99.90;;;;;;4992785;28;20042;-66
2023/02/10 05:58:58;;;;;;;26.33;12.25;;;1.20;99.90;;;;;;5010070;28;20077;-66
2023/02/10 06:01:24;;;;;;;31.45;13.52;;;1.20;99.90;;;;;;4991903;28;20478;-66
2023/02/10 06:03:50;;;;;;;26.02;12.00;;;1.10;99.90;;;;;;5010295;28;20076;-66
2023/02/10 06:06:16;;;;;;;23.92;12.32;;;1.10;99.90;;;;;;4974314;28;20514;-66
2023/02/10 06:08:42;;;;;;;21.88;12.02;;;1.10;99.90;;;;;;5010069;28;20430;-66
2023/02/10 06:11:08;;;;;;;29.63;13.93;;;1.10;99.90;;;;;;5009728;28;20097;-66
2023/02/10 06:13:34;;;;;;;30.75;14.85;;;1.10;99.90;;;;;;5010670;28;20124;-66
2023/02/10 06:16:01;;;;;;;27.52;13.10;;;1.10;99.90;;;;;;5010042;28;20034;-66
2023/02/10 06:18:28;;;;;;;32.60;14.02;;;1.10;99.90;;;;;;5010481;28;20046;-66
2023/02/10 06:20:53;;;;;;;25.15;13.55;;;1.10;99.90;;;;;;4991692;28;20077;-66
2023/02/10 06:23:20;;;;;;;25.95;13.57;;;1.10;99.90;;;;;;4991666;28;20532;-66
2023/02/10 06:25:46;;;;;;;27.25;13.50;;;1.10;99.90;;;;;;4991249;28;20038;-66
2023/02/10 06:28:14;;;;;;;28.23;14.50;;;1.10;99.90;;;;;;5008520;28;20037;-66
2023/02/10 06:30:40;;;;;;;29.13;13.90;;;1.10;99.90;;;;;;5010388;28;20033;-66
2023/02/10 06:33:06;;;;;;;25.10;14.40;;;1.10;99.90;;;;;;4988981;28;20121;-66
2023/02/10 06:35:32;;;;;;;26.60;14.55;;;1.10;99.90;;;;;;4987490;28;20078;-66
2023/02/10 06:37:57;;;;;;;26.45;14.93;;;1.10;99.90;;;;;;4991679;28;20057;-66
2023/02/10 06:40:23;;;;;;;28.70;14.52;;;1.10;99.90;;;;;;5007050;28;20080;-66
2023/02/10 06:42:49;;;;;;;25.08;14.02;;;1.10;99.90;;;;;;4989298;28;20041;-66
2023/02/10 06:45:15;;;;;;;24.48;14.32;;;1.10;99.90;;;;;;4988691;28;20402;-66
2023/02/10 06:47:40;;;;;;;29.98;14.85;;;1.20;99.90;;;;;;4987746;28;20401;-66
2023/02/10 06:50:06;;;;;;;28.75;14.80;;;1.10;99.90;;;;;;4986677;28;20054;-66
2023/02/10 06:52:34;;;;;;;28.38;14.95;;;1.10;99.90;;;;;;4986609;28;20109;-66
2023/02/10 06:55:00;;;;;;;31.15;16.13;;;1.10;99.90;;;;;;5003845;28;20038;-66
2023/02/10 06:57:26;;;;;;;32.33;16.13;;;1.10;99.90;;;;;;4987051;28;20037;-66
2023/02/10 06:59:52;;;;;;;30.00;15.38;;;1.10;99.90;;;;;;5005163;28;20061;-66
2023/02/10 07:02:18;;;;;;;24.80;15.73;;;1.10;99.90;;;;;;5004315;28;20041;-66
2023/02/10 07:04:44;;;;;;;26.90;15.68;;;1.10;99.90;;;;;;4988582;28;20129;-66
2023/02/10 07:07:10;;;;;;;33.20;16.10;;;1.10;99.90;;;;;;4989276;28;20042;-66
2023/02/10 07:09:35;;;;;;;33.20;16.08;;;1.20;99.90;;;;;;5004527;28;20112;-66
2023/02/10 07:12:01;;;;;;;28.10;16.02;;;1.20;99.90;;;;;;4989431;28;20383;-66
2023/02/10 07:14:27;;;;;;;28.83;15.80;;;1.20;99.90;;;;;;5010379;28;20042;-66
2023/02/10 07:16:52;;;;;;;33.97;17.42;;;1.30;99.90;;;;;;4993446;28;20050;-67
2023/02/10 07:19:18;;;;;;;25.67;15.77;;;1.20;99.90;;;;;;4991315;28;20410;-65
2023/02/10 07:21:44;;;;;;;32.45;16.63;;;1.20;99.90;;;;;;5007538;28;20065;-64
2023/02/10 07:24:09;;;;;;;42.83;24.30;;;1.20;99.90;;;;;;5007449;28;20037;-64
2023/02/10 07:26:35;;;;;;;34.00;18.00;;;1.30;99.90;;;;;;5009012;28;20126;-64
2023/02/10 07:29:01;;;;;;;26.75;17.00;;;1.30;99.90;;;;;;4985595;28;20050;-64
2023/02/10 07:31:27;;;;;;;30.35;17.10;;;1.40;99.90;;;;;;5008643;28;20474;-65
2023/02/10 07:33:53;;;;;;;30.08;16.80;;;1.50;99.90;;;;;;5008946;28;20515;-64
2023/02/10 07:36:18;;;;;;;27.27;16.80;;;1.50;99.90;;;;;;5008310;28;20237;-64
2023/02/10 07:38:44;;;;;;;31.90;16.92;;;1.50;99.90;;;;;;5011023;28;20116;-64
2023/02/10 07:41:10;;;;;;;29.50;16.48;;;1.60;99.90;;;;;;5011442;28;20121;-66
2023/02/10 07:43:36;;;;;;;27.65;15.77;;;1.80;99.90;;;;;;4978976;28;20045;-66
2023/02/10 07:46:02;;;;;;;25.92;16.00;;;2.00;99.90;;;;;;5012455;28;20030;-66
2023/02/10 07:48:29;;;;;;;24.38;15.48;;;2.10;99.90;;;;;;5013505;28;20058;-66
2023/02/10 07:50:54;;;;;;;30.73;16.00;;;2.20;99.90;;;;;;5013184;28;20050;-67
2023/02/10 07:53:21;;;;;;;32.28;17.67;;;2.40;99.90;;;;;;4995005;28;20100;-67
2023/02/10 07:55:47;;;;;;;30.77;16.40;;;2.60;99.90;;;;;;5013275;28;20045;-67
2023/02/10 07:58:13;;;;;;;26.95;15.38;;;2.90;99.90;;;;;;5012490;28;20044;-67
2023/02/10 08:00:39;;;;;;;31.48;15.05;;;3.00;99.90;;;;;;5010350;28;20038;-67
2023/02/10 08:03:13;;;;;;;25.85;16.25;;;3.00;99.90;;;;;;4992571;28;20107;-67
2023/02/10 08:05:39;;;;;;;30.38;15.63;;;3.00;99.90;;;;;;5012826;28;20045;-67
2023/02/10 08:08:04;;;;;;;23.50;14.68;;;3.10;99.90;;;;;;5011717;28;20034;-67
2023/02/10 08:10:30;;;;;;;22.30;14.27;;;3.20;99.90;;;;;;5013085;28;20534;-67
2023/02/10 08:12:56;;;;;;;26.00;14.35;;;3.60;99.90;;;;;;4992412;28;20042;-67
2023/02/10 08:15:22;;;;;;;28.08;15.10;;;4.20;99.90;;;;;;5013101;28;20806;-68
2023/02/10 08:17:48;;;;;;;23.00;13.55;;;4.50;99.90;;;;;;4993129;28;20052;-67
2023/02/10 08:20:14;;;;;;;25.48;15.27;;;4.80;99.90;;;;;;4994050;28;20121;-67
2023/02/10 08:22:39;;;;;;;24.50;13.52;;;5.30;99.90;;;;;;5011728;28;20120;-68
2023/02/10 08:25:05;;;;;;;24.05;13.90;;;5.80;99.90;;;;;;5010329;28;20045;-67
2023/02/10 08:27:31;;;;;;;24.40;14.45;;;6.20;99.90;;;;;;5011954;28;20033;-67
2023/02/10 08:29:57;;;;;;;23.65;14.50;;;6.70;99.90;;;;;;4992023;28;20049;-67
2023/02/10 08:32:23;;;;;;;25.52;14.63;;;7.00;99.90;;;;;;5012061;28;20075;-67
2023/02/10 08:34:49;;;;;;;22.42;14.32;;;7.40;99.90;;;;;;5011337;28;20034;-67
2023/02/10 08:37:17;;;;;;;23.25;13.32;;;7.80;99.90;;;;;;5011795;28;20049;-67
2023/02/10 08:39:43;;;;;;;24.40;15.07;;;8.20;99.90;;;;;;5010861;28;20390;-67
2023/02/10 08:42:09;;;;;;;22.35;13.93;;;8.40;99.90;;;;;;5011245;28;20403;-67
2023/02/10 08:44:36;;;;;;;22.30;13.55;;;8.70;99.90;;;;;;5011171;28;20152;-67
2023/02/10 08:47:02;;;;;;;24.20;13.82;;;8.90;99.90;;;;;;4993465;28;20042;-67
2023/02/10 08:49:28;;;;;;;24.23;14.38;;;9.30;99.90;;;;;;5009301;28;20445;-67
2023/02/10 08:51:55;;;;;;;21.83;13.75;;;9.40;99.90;;;;;;4993912;28;20462;-67
2023/02/10 08:54:21;;;;;;;21.63;13.50;;;9.60;99.90;;;;;;5009676;28;20507;-67
2023/02/10 08:56:48;;;;;;;23.95;14.23;;;9.70;99.90;;;;;;5011323;28;20042;-67
2023/02/10 08:59:14;;;;;;;24.73;13.68;;;9.50;99.90;;;;;;4992467;28;20045;-68
2023/02/10 09:01:40;;;;;;;24.73;14.25;;;9.20;99.90;;;;;;4992067;28;20042;-67
2023/02/10 09:04:06;;;;;;;23.25;13.80;;;9.40;99.90;;;;;;4993263;28;20124;-67
2023/02/10 09:06:40;;;;;;;20.95;13.15;;;9.40;99.90;;;;;;4977163;28;20042;-67
2023/02/10 09:09:10;;;;;;;26.35;13.20;;;9.20;99.90;;;;;;4992678;28;20493;-67
2023/02/10 09:11:37;;;;;;;23.25;14.27;;;8.90;99.90;;;;;;4991643;28;20050;-67
2023/02/10 09:14:02;;;;;;;20.17;14.38;;;8.70;99.90;;;;;;4993340;28;20128;-67
2023/02/10 09:16:28;;;;;;;21.13;14.27;;;8.90;99.90;;;;;;5010467;28;20117;-67
2023/02/10 09:18:54;;;;;;;22.65;14.07;;;9.50;99.90;;;;;;4993079;28;20057;-67
2023/02/10 09:21:19;;;;;;;23.38;13.70;;;10.30;99.90;;;;;;5010012;28;20647;-67
2023/02/10 09:23:45;;;;;;;22.30;13.90;;;10.70;99.90;;;;;;5008981;28;20046;-67
2023/02/10 09:26:11;;;;;;;18.90;13.18;;;10.20;99.90;;;;;;4992497;28;20125;-67
2023/02/10 09:28:37;;;;;;;22.30;14.63;;;9.40;99.90;;;;;;4993654;28;20508;-67
2023/02/10 09:31:07;;;;;;;23.15;13.50;;;8.40;99.90;;;;;;5010829;28;20133;-67
2023/02/10 09:33:33;;;;;;;23.13;14.40;;;7.70;99.90;;;;;;4993561;28;20041;-67
2023/02/10 09:36:01;;;;;;;23.38;15.10;;;7.10;99.90;;;;;;5010311;28;20034;-67
2023/02/10 09:38:28;;;;;;;27.80;15.30;;;6.80;99.90;;;;;;4993111;28;20037;-67
2023/02/10 09:41:05;;;;;;;23.92;13.90;;;6.60;99.90;;;;;;5009771;28;20033;-67
2023/02/10 09:43:31;;;;;;;22.10;14.32;;;7.00;99.90;;;;;;4984221;28;20050;-67
2023/02/10 09:46:10;;;;;;;24.23;14.60;;;7.90;99.90;;;;;;5010170;28;20093;-67
2023/02/10 09:49:12;;;;;;;21.08;14.88;;;9.00;99.90;;;;;;5010744;28;20062;-68
2023/02/10 09:51:41;;;;;;;27.77;18.85;;;10.20;99.90;;;;;;5008447;28;20426;-68
2023/02/10 09:54:11;;;;;;;22.10;15.32;;;11.00;99.90;;;;;;5007700;28;20164;-68
2023/02/10 09:56:38;;;;;;;23.67;15.52;;;11.60;99.90;;;;;;5007187;28;20187;-68
2023/02/10 09:59:06;;;;;;;22.30;15.63;;;12.20;99.90;;;;;;4976475;28;20466;-68
2023/02/10 10:01:43;;;;;;;22.45;14.77;;;12.50;99.90;;;;;;5008491;28;20045;-68
2023/02/10 10:04:16;;;;;;;22.25;15.38;;;12.30;99.90;;;;;;5007336;28;20065;-68
2023/02/10 10:06:50;;;;;;;25.08;14.85;;;12.20;99.90;;;;;;5010302;28;20030;-68
2023/02/10 10:09:41;;;;;;;25.77;15.25;;;12.30;99.90;;;;;;5009809;28;20104;-68
2023/02/10 10:12:11;;;;;;;22.45;15.55;;;12.70;99.90;;;;;;4991926;28;20611;-68
2023/02/10 10:14:39;;;;;;;26.67;15.68;;;13.10;99.90;;;;;;5009400;28;20041;-68
2023/02/10 10:17:08;;;;;;;22.30;15.75;;;13.40;99.90;;;;;;5009539;28;20092;-68
2023/02/10 10:19:52;;;;;;;24.88;13.60;;;13.40;99.90;;;;;;5009343;28;20046;-68
2023/02/10 10:22:51;;;;;;;23.75;14.63;;;13.40;99.90;;;;;;5009520;28;20038;-68
2023/02/10 10:25:32;;;;;;;23.30;13.88;;;13.40;99.90;;;;;;4986073;28;20050;-68
2023/02/10 10:27:58;;;;;;;24.05;13.93;;;13.20;99.90;;;;;;5007712;28;20457;-67
2023/02/10 10:30:44;;;;;;;23.02;14.27;;;13.30;99.90;;;;;;5011330;28;20037;-67
2023/02/10 10:33:22;;;;;;;22.27;13.68;;;13.40;99.90;;;;;;5010355;28;20128;-67
2023/02/10 10:35:48;;;;;;;22.02;13.93;;;13.50;99.90;;;;;;5007587;28;20038;-68
2023/02/10 10:38:24;;;;;;;25.67;13.43;;;13.60;99.90;;;;;;5008134;28;20038;-68
2023/02/10 10:40:54;;;;;;;22.30;13.93;;;13.70;99.90;;;;;;5008942;28;20042;-67
2023/02/10 10:43:25;;;;;;;25.90;15.45;;;13.90;99.90;;;;;;4993333;28;20359;-67
2023/02/10 10:46:10;;;;;;;25.35;13.75;;;14.00;99.90;;;;;;4993604;28;20478;-67
2023/02/10 10:48:40;;;;;;;21.85;13.20;;;14.10;99.90;;;;;;5009833;28;20125;-68
2023/02/10 10:51:07;;;;;;;17.00;12.07;;;14.20;99.90;;;;;;5009952;28;20077;-67
2023/02/10 10:53:48;;;;;;;25.70;13.20;;;14.20;99.90;;;;;;5010079;28;20061;-67
2023/02/10 10:56:29;;;;;;;21.38;12.73;;;13.70;99.90;;;;;;5009690;28;20037;-67
2023/02/10 10:58:57;;;;;;;21.65;12.70;;;12.90;99.90;;;;;;4992696;28;20583;-67
2023/02/10 11:01:38;;;;;;;20.00;11.68;;;11.80;99.90;;;;;;5010270;28;20034;-67
2023/02/10 11:04:11;;;;;;;18.77;12.40;;;11.10;99.90;;;;;;4992570;28;20102;-67
2023/02/10 11:06:37;;;;;;;21.25;12.18;;;10.80;99.90;;;;;;4992753;28;20041;-68
2023/02/10 11:09:07;;;;;;;23.10;11.85;;;11.20;99.90;;;;;;4991758;28;20418;-67
2023/02/10 11:11:42;;;;;;;20.73;11.65;;;11.70;99.90;;;;;;4991619;28;20125;-67
2023/02/10 11:14:28;;;;;;;19.13;10.55;;;12.00;99.90;;;;;;5013667;28;20609;-67
2023/02/10 11:17:01;;;;;;;21.00;11.15;;;12.50;99.90;;;;;;5013914;28;20042;-67
2023/02/10 11:19:29;;;;;;;19.20;10.90;;;13.00;99.90;;;;;;5012314;28;20034;-68
2023/02/10 11:21:55;;;;;;;20.10;11.88;;;13.40;99.90;;;;;;5013718;28;20069;-68
2023/02/10 11:24:26;;;;;;;19.00;10.23;;;13.60;99.90;;;;;;5011049;28;20034;-68
2023/02/10 11:27:02;;;;;;;26.40;10.88;;;13.50;99.90;;;;;;4995891;28;20482;-67
2023/02/10 11:29:31;;;;;;;19.45;9.82;;;12.90;99.90;;;;;;5003872;28;20424;-67
2023/02/10 11:31:57;;;;;;;18.33;9.73;;;12.10;99.90;;;;;;5014135;28;20049;-67
2023/02/10 11:34:39;;;;;;;16.83;8.82;;;11.40;99.90;;;;;;5012622;28;20048;-67
2023/02/10 11:37:19;;;;;;;18.35;8.57;;;10.60;99.90;;;;;;5010732;28;20048;-67
2023/02/10 11:39:46;;;;;;;16.42;8.57;;;10.00;99.90;;;;;;5010615;28;20041;-67
2023/02/10 11:42:22;;;;;;;20.00;9.25;;;9.70;99.90;;;;;;5012715;28;20048;-66
2023/02/10 11:45:22;;;;;;;21.20;9.52;;;9.40;99.90;;;;;;5013965;28;20034;-67
2023/02/10 11:48:13;;;;;;;19.38;8.18;;;9.00;99.90;;;;;;5013735;28;20474;-66
2023/02/10 11:50:39;;;;;;;18.02;7.93;;;8.80;99.90;;;;;;5013274;28;20133;-66
2023/02/10 11:53:08;;;;;;;16.50;8.20;;;8.60;99.90;;;;;;4994863;28;20125;-66
2023/02/10 11:55:41;;;;;;;16.95;8.38;;;8.50;99.90;;;;;;5012540;28;20145;-66
2023/02/10 11:59:01;;;;;;;20.08;8.25;;;8.40;99.90;;;;;;4995017;28;20493;-66
2023/02/10 12:02:01;;;;;;;17.40;7.60;;;8.30;99.90;;;;;;5009269;28;20502;-66
2023/02/10 12:04:42;;;;;;;18.25;8.00;;;8.30;99.90;;;;;;4994304;28;20498;-66
2023/02/10 12:07:39;;;;;;;25.67;8.75;;;8.20;99.90;;;;;;5012037;28;20501;-66
2023/02/10 12:10:17;;;;;;;22.67;8.20;;;8.20;99.90;;;;;;4960733;28;20446;-66
2023/02/10 12:12:55;;;;;;;15.50;7.60;;;8.20;99.90;;;;;;4986665;28;20045;-66
2023/02/10 12:15:23;;;;;;;16.98;7.47;;;8.20;99.90;;;;;;5011881;28;20137;-66
2023/02/10 12:18:11;;;;;;;19.92;8.10;;;8.30;99.90;;;;;;4993763;28;20438;-66
2023/02/10 12:21:20;;;;;;;20.65;7.95;;;8.30;99.90;;;;;;5012287;28;20074;-66
2023/02/10 12:24:12;;;;;;;13.32;7.65;;;8.40;99.90;;;;;;5011097;28;20108;-66
2023/02/10 12:26:56;;;;;;;20.67;8.20;;;8.50;99.90;;;;;;5012330;28;20490;-66
2023/02/10 12:29:37;;;;;;;18.67;7.30;;;8.50;99.90;;;;;;5012396;28;20037;-66
2023/02/10 12:32:52;;;;;;;16.92;7.10;;;8.50;99.90;;;;;;5012304;28;20042;-66
2023/02/10 12:35:34;;;;;;;17.60;6.60;;;8.50;99.90;;;;;;4957582;28;20051;-66
2023/02/10 12:38:26;;;;;;;18.88;7.63;;;8.40;99.90;;;;;;5009874;28;20042;-66
2023/02/10 12:41:25;;;;;;;19.90;8.10;;;8.40;99.90;;;;;;5011574;28;20405;-66
2023/02/10 12:44:10;;;;;;;21.23;7.45;;;8.40;99.90;;;;;;4994010;28;20088;-66
2023/02/10 12:47:07;;;;;;;17.70;7.45;;;8.40;99.90;;;;;;4992089;28;20133;-67
2023/02/10 12:49:59;;;;;;;15.07;7.05;;;8.40;99.90;;;;;;5007360;28;20057;-67